createdAt,value
2022-09-22T00:01:37.288Z,102574.53
2022-09-22T00:04:13.560Z,102579.72
2022-09-22T00:06:44.673Z,102585.00
2022-09-22T00:09:16.641Z,102577.09
2022-09-22T00:11:48.253Z,102578.78
2022-09-22T00:14:24.072Z,102585.78
2022-09-22T00:16:54.157Z,102582.22
2022-09-22T00:19:35.644Z,102571.69
2022-09-22T00:22:05.760Z,102573.31
2022-09-22T00:24:34.920Z,102575.88
2022-09-22T00:27:03.358Z,102572.31
2022-09-22T00:29:31.700Z,102572.25
2022-09-22T00:32:06.471Z,102575.72
2022-09-22T00:34:36.086Z,102568.66
2022-09-22T00:37:04.513Z,102570.41
2022-09-22T00:39:32.889Z,102566.84
2022-09-22T00:42:01.276Z,102572.97
2022-09-22T00:44:29.858Z,102562.44
2022-09-22T00:46:58.120Z,102561.50
2022-09-22T00:49:58.845Z,102560.56
2022-09-22T00:53:16.327Z,102550.78
2022-09-22T00:55:51.941Z,102553.41
2022-09-22T00:58:27.597Z,102548.97
2022-09-22T01:00:56.327Z,102546.28
2022-09-22T01:03:29.805Z,102550.66
2022-09-22T01:06:02.328Z,102546.22
2022-09-22T01:08:31.658Z,102542.63
2022-09-22T01:11:01.239Z,102539.06
2022-09-22T01:14:00.495Z,102539.91
2022-09-22T01:16:56.660Z,102531.06
2022-09-22T01:19:46.388Z,102536.22
2022-09-22T01:22:47.147Z,102536.94
2022-09-22T01:25:45.769Z,102533.31
2022-09-22T01:28:45.436Z,102532.28
2022-09-22T01:31:38.751Z,102531.34
2022-09-22T01:34:37.763Z,102530.47
2022-09-22T01:37:20.726Z,102520.72
2022-09-22T01:39:54.067Z,102518.88
2022-09-22T01:42:45.536Z,102519.69
2022-09-22T01:45:24.680Z,102523.13
2022-09-22T01:47:55.188Z,102521.28
2022-09-22T01:50:28.914Z,102518.59
2022-09-22T01:53:00.509Z,102515.91
2022-09-22T01:55:36.281Z,102516.69
2022-09-22T01:58:18.562Z,102514.81
2022-09-22T02:00:57.060Z,102505.09
2022-09-22T02:03:40.976Z,102510.25
2022-09-22T02:06:17.395Z,102500.44
2022-09-22T02:08:57.614Z,102502.13
2022-09-22T02:11:26.041Z,102502.94
2022-09-22T02:13:54.577Z,102504.59
2022-09-22T02:16:24.443Z,102505.34
2022-09-22T02:18:55.813Z,102506.94
2022-09-22T02:21:27.402Z,102505.06
2022-09-22T02:23:56.459Z,102505.78
2022-09-22T02:26:27.948Z,102503.09
2022-09-22T02:29:08.052Z,102500.47
2022-09-22T02:31:38.893Z,102503.03
2022-09-22T02:34:08.926Z,102505.66
2022-09-22T02:36:42.208Z,102500.31
2022-09-22T02:39:18.313Z,102496.63
2022-09-22T02:42:15.120Z,102500.09
2022-09-22T02:44:54.740Z,102496.44
2022-09-22T02:47:44.781Z,102491.97
2022-09-22T02:50:17.269Z,102491.84
2022-09-22T02:52:45.865Z,102491.75
2022-09-22T02:55:17.432Z,102485.47
2022-09-22T02:57:46.051Z,102483.66
2022-09-22T03:00:15.064Z,102477.41
2022-09-22T03:02:43.508Z,102479.06
2022-09-22T03:05:12.817Z,102478.97
2022-09-22T03:07:41.209Z,102478.91
2022-09-22T03:10:10.065Z,102470.16
2022-09-22T03:13:02.412Z,102476.22
2022-09-22T03:15:31.347Z,102473.59
2022-09-22T03:17:59.702Z,102466.50
2022-09-22T03:20:28.102Z,102464.75
2022-09-22T03:22:56.483Z,102463.88
2022-09-22T03:25:24.881Z,102463.88
2022-09-22T03:27:53.386Z,102463.81
2022-09-22T03:30:21.781Z,102462.94
2022-09-22T03:32:50.074Z,102464.63
2022-09-22T03:35:18.695Z,102459.38
2022-09-22T03:37:47.042Z,102457.59
2022-09-22T03:40:15.510Z,102457.59
2022-09-22T03:42:44.387Z,102455.78
2022-09-22T03:45:12.872Z,102459.28
2022-09-22T03:47:41.412Z,102452.22
2022-09-22T03:50:10.716Z,102460.94
2022-09-22T03:52:40.160Z,102452.16
2022-09-22T03:55:10.071Z,102452.13
2022-09-22T03:57:39.189Z,102455.56
2022-09-22T04:00:08.685Z,102452.00
2022-09-22T04:02:43.510Z,102453.75
2022-09-22T04:05:11.980Z,102452.06
2022-09-22T04:07:40.386Z,102459.84
2022-09-22T04:10:09.251Z,102447.56
2022-09-22T04:12:37.532Z,102453.66
2022-09-22T04:15:06.313Z,102451.84
2022-09-22T04:17:34.523Z,102447.44
2022-09-22T04:20:05.213Z,102442.13
2022-09-22T04:22:33.744Z,102443.81
2022-09-22T04:25:06.101Z,102448.16
2022-09-22T04:27:34.395Z,102442.84
2022-09-22T04:30:03.195Z,102444.59
2022-09-22T04:32:32.091Z,102440.97
2022-09-22T04:35:00.356Z,102445.41
2022-09-22T04:37:29.208Z,102444.53
2022-09-22T04:39:59.219Z,102436.59
2022-09-22T04:42:27.647Z,102438.19
2022-09-22T04:45:01.927Z,102439.00
2022-09-22T04:47:30.900Z,102436.34
2022-09-22T04:49:59.931Z,102429.28
2022-09-22T04:52:28.271Z,102431.03
2022-09-22T04:54:56.749Z,102434.53
2022-09-22T04:57:25.041Z,102437.16
2022-09-22T04:59:53.454Z,102439.72
2022-09-22T05:02:21.806Z,102438.00
2022-09-22T05:04:50.247Z,102435.31
2022-09-22T05:07:18.958Z,102427.44
2022-09-22T05:09:47.846Z,102436.22
2022-09-22T05:12:16.121Z,102439.66
2022-09-22T05:14:44.598Z,102431.03
2022-09-22T05:17:13.165Z,102435.41
2022-09-22T05:19:41.571Z,102439.78
2022-09-22T05:22:10.103Z,102440.63
2022-09-22T05:24:38.801Z,102442.41
2022-09-22T05:27:07.701Z,102434.53
2022-09-22T05:29:35.974Z,102440.63
2022-09-22T05:32:05.146Z,102447.59
2022-09-22T05:34:33.538Z,102440.63
2022-09-22T05:37:01.856Z,102438.91
2022-09-22T05:39:32.592Z,102446.78
2022-09-22T05:42:00.994Z,102445.91
2022-09-22T05:44:29.661Z,102444.31
2022-09-22T05:46:57.992Z,102448.81
2022-09-22T05:49:26.229Z,102445.47
2022-09-22T05:51:57.351Z,102451.69
2022-09-22T05:54:25.717Z,102454.38
2022-09-22T05:56:55.856Z,102450.97
2022-09-22T05:59:24.150Z,102451.03
2022-09-22T06:01:56.167Z,102456.38
2022-09-22T06:04:27.785Z,102449.53
2022-09-22T06:06:56.173Z,102452.22
2022-09-22T06:09:25.089Z,102445.28
2022-09-22T06:11:53.344Z,102451.56
2022-09-22T06:14:21.756Z,102444.72
2022-09-22T06:16:50.089Z,102446.53
2022-09-22T06:19:18.547Z,102440.59
2022-09-22T06:21:47.747Z,102442.44
2022-09-22T06:24:16.590Z,102443.47
2022-09-22T06:26:45.875Z,102444.56
2022-09-22T06:29:14.257Z,102442.97
2022-09-22T06:31:42.804Z,102438.72
2022-09-22T06:34:11.688Z,102447.63
2022-09-22T06:36:43.102Z,102438.28
2022-09-22T06:39:12.115Z,102441.94
2022-09-22T06:41:40.681Z,102439.50
2022-09-22T06:44:11.044Z,102435.31
2022-09-22T06:46:40.093Z,102431.13
2022-09-22T06:49:08.691Z,102428.94
2022-09-22T06:51:37.162Z,102437.09
2022-09-22T06:54:06.489Z,102435.28
2022-09-22T06:56:42.655Z,102429.97
2022-09-22T06:59:14.343Z,102427.66
2022-09-22T07:01:44.656Z,102434.78
2022-09-22T07:04:13.507Z,102424.41
2022-09-22T07:06:42.767Z,102425.25
2022-09-22T07:09:12.352Z,102426.38
2022-09-22T07:11:40.774Z,102434.28
2022-09-22T07:14:10.288Z,102426.38
2022-09-22T07:16:41.184Z,102437.09
2022-09-22T07:19:10.086Z,102428.44
2022-09-22T07:21:40.343Z,102432.34
2022-09-22T07:24:08.891Z,102424.03
2022-09-22T07:26:39.534Z,102427.00
2022-09-22T07:29:11.526Z,102424.81
2022-09-22T07:31:42.053Z,102429.75
2022-09-22T07:34:10.753Z,102431.03
2022-09-22T07:36:39.176Z,102426.88
2022-09-22T07:39:11.118Z,102421.13
2022-09-22T07:41:43.662Z,102421.69
2022-09-22T07:44:34.112Z,102419.53
2022-09-22T07:47:03.476Z,102416.47
2022-09-22T07:49:32.009Z,102419.53
2022-09-22T07:52:00.367Z,102413.59
2022-09-22T07:54:28.890Z,102407.63
2022-09-22T07:56:58.745Z,102412.28
2022-09-22T07:59:27.827Z,102405.38
2022-09-22T08:01:56.550Z,102405.44
2022-09-22T08:04:26.786Z,102410.84
2022-09-22T08:06:56.128Z,102406.47
2022-09-22T08:09:26.111Z,102401.19
2022-09-22T08:11:56.079Z,102409.19
2022-09-22T08:14:24.715Z,102409.19
2022-09-22T08:16:54.086Z,102417.19
2022-09-22T08:19:23.930Z,102414.53
2022-09-22T08:21:54.296Z,102418.97
2022-09-22T08:24:23.723Z,102415.41
2022-09-22T08:26:56.173Z,102413.63
2022-09-22T08:29:24.914Z,102418.03
2022-09-22T08:31:54.398Z,102419.84
2022-09-22T08:34:23.201Z,102417.16
2022-09-22T08:36:52.595Z,102414.50
2022-09-22T08:39:20.967Z,102413.63
2022-09-22T08:42:06.060Z,102410.06
2022-09-22T08:44:58.049Z,102408.28
2022-09-22T08:48:09.052Z,102408.28
2022-09-22T08:51:10.104Z,102410.06
2022-09-22T08:53:44.950Z,102407.38
2022-09-22T08:56:32.094Z,102405.63
2022-09-22T08:59:22.991Z,102409.19
2022-09-22T09:02:13.180Z,102407.41
2022-09-22T09:04:50.489Z,102408.31
2022-09-22T09:07:58.974Z,102403.00
2022-09-22T09:10:30.394Z,102411.84
2022-09-22T09:13:29.130Z,102403.84
2022-09-22T09:16:20.846Z,102407.38
2022-09-22T09:19:18.588Z,102392.25
2022-09-22T09:21:52.872Z,102392.22
2022-09-22T09:27:38.516Z,102400.16
2022-09-22T09:30:11.851Z,102390.41
2022-09-22T09:32:53.712Z,102401.91
2022-09-22T09:35:44.269Z,102394.84
2022-09-22T09:38:17.346Z,102391.31
2022-09-22T09:40:54.403Z,102399.28
2022-09-22T09:43:24.660Z,102394.84
2022-09-22T09:46:03.191Z,102393.97
2022-09-22T09:48:37.774Z,102395.75
2022-09-22T09:51:06.374Z,102387.75
2022-09-22T09:53:42.868Z,102387.75
2022-09-22T09:56:29.853Z,102390.44
2022-09-22T09:59:21.893Z,102390.44
2022-09-22T10:01:54.078Z,102390.44
2022-09-22T10:04:23.289Z,102387.78
2022-09-22T10:06:52.015Z,102386.91
2022-09-22T10:09:29.721Z,102379.81
2022-09-22T10:12:02.600Z,102373.59
2022-09-22T10:14:35.346Z,102372.78
2022-09-22T10:17:04.082Z,102373.66
2022-09-22T10:19:34.704Z,102371.00
2022-09-22T10:22:39.647Z,102370.13
2022-09-22T10:25:32.118Z,102365.69
2022-09-22T10:28:00.307Z,102363.91
2022-09-22T10:30:37.878Z,102363.91
2022-09-22T10:33:23.360Z,102366.56
2022-09-22T10:36:12.286Z,102355.91
2022-09-22T10:38:44.962Z,102358.59
2022-09-22T10:41:17.897Z,102361.25
2022-09-22T10:44:15.449Z,102357.69
2022-09-22T10:47:11.072Z,102361.25
2022-09-22T10:50:07.218Z,102363.03
2022-09-22T10:53:04.916Z,102359.47
2022-09-22T10:55:46.013Z,102351.47
2022-09-22T10:58:27.416Z,102344.34
2022-09-22T11:01:13.241Z,102347.00
2022-09-22T11:04:04.633Z,102346.13
2022-09-22T11:07:06.869Z,102343.44
2022-09-22T11:10:09.977Z,102351.41
2022-09-22T11:12:52.589Z,102343.41
2022-09-22T11:15:24.157Z,102343.41
2022-09-22T11:18:20.600Z,102338.13
2022-09-22T11:20:55.951Z,102326.56
2022-09-22T11:23:48.226Z,102330.09
2022-09-22T11:26:46.650Z,102338.09
2022-09-22T11:29:45.363Z,102323.91
2022-09-22T11:32:19.961Z,102325.72
2022-09-22T11:35:00.704Z,102319.47
2022-09-22T11:37:49.787Z,102311.44
2022-09-22T11:40:45.824Z,102307.84
2022-09-22T11:43:38.048Z,102308.75
2022-09-22T11:46:18.792Z,102306.09
2022-09-22T11:48:50.261Z,102300.78
2022-09-22T11:51:27.648Z,102292.75
2022-09-22T11:54:10.321Z,102290.06
2022-09-22T11:56:40.789Z,102288.22
2022-09-22T11:59:33.904Z,102289.09
2022-09-22T12:02:12.946Z,102295.34
2022-09-22T12:04:56.969Z,102287.38
2022-09-22T12:07:32.823Z,102288.34
2022-09-22T12:10:12.681Z,102291.94
2022-09-22T12:12:44.703Z,102294.59
2022-09-22T12:15:29.088Z,102279.50
2022-09-22T12:18:28.553Z,102292.84
2022-09-22T12:21:02.504Z,102289.28
2022-09-22T12:23:36.791Z,102281.34
2022-09-22T12:26:25.307Z,102275.13
2022-09-22T12:28:54.767Z,102276.00
2022-09-22T12:31:42.253Z,102274.25
2022-09-22T12:34:24.423Z,102270.69
2022-09-22T12:36:56.065Z,102267.13
2022-09-22T12:39:29.281Z,102256.47
2022-09-22T12:41:59.897Z,102253.81
2022-09-22T12:44:31.979Z,102248.50
2022-09-22T12:47:04.924Z,102252.94
2022-09-22T12:49:33.657Z,102258.25
2022-09-22T12:52:02.423Z,102252.91
2022-09-22T12:54:37.838Z,102246.66
2022-09-22T12:57:09.310Z,102241.34
2022-09-22T12:59:37.675Z,102245.78
2022-09-22T13:02:40.389Z,102240.47
2022-09-22T13:05:12.139Z,102234.22
2022-09-22T13:07:44.485Z,102239.56
2022-09-22T13:10:22.261Z,102236.00
2022-09-22T13:13:12.257Z,102237.81
2022-09-22T13:15:47.173Z,102227.19
2022-09-22T13:18:34.049Z,102221.00
2022-09-22T13:21:14.586Z,102219.19
2022-09-22T13:23:52.741Z,102211.25
2022-09-22T13:26:23.293Z,102222.78
2022-09-22T13:29:04.831Z,102204.09
2022-09-22T13:31:45.390Z,102200.53
2022-09-22T13:34:20.764Z,102197.84
2022-09-22T13:36:51.534Z,102201.41
2022-09-22T13:39:22.515Z,102200.53
2022-09-22T13:42:04.194Z,102191.66
2022-09-22T13:44:36.727Z,102191.66
2022-09-22T13:47:12.009Z,102191.66
2022-09-22T13:50:14.641Z,102184.56
2022-09-22T13:52:44.579Z,102179.22
2022-09-22T13:55:20.804Z,102177.47
2022-09-22T13:57:50.648Z,102181.94
2022-09-22T14:00:44.941Z,102176.63
2022-09-22T14:03:22.757Z,102175.72
2022-09-22T14:05:53.933Z,102173.97
2022-09-22T14:08:30.637Z,102171.31
2022-09-22T14:11:00.596Z,102170.41
2022-09-22T14:13:55.084Z,102161.53
2022-09-22T14:16:26.521Z,102157.06
2022-09-22T14:19:19.165Z,102154.38
2022-09-22T14:22:02.385Z,102147.25
2022-09-22T14:24:35.967Z,102149.91
2022-09-22T14:27:07.727Z,102154.31
2022-09-22T14:29:39.996Z,102149.91
2022-09-22T14:32:13.193Z,102150.78
2022-09-22T14:34:47.229Z,102142.81
2022-09-22T14:37:25.096Z,102149.03
2022-09-22T14:39:55.640Z,102142.84
2022-09-22T14:42:29.352Z,102145.50
2022-09-22T14:45:09.641Z,102144.66
2022-09-22T14:47:42.391Z,102144.69
2022-09-22T14:50:37.641Z,102130.50
2022-09-22T14:53:41.139Z,102136.72
2022-09-22T14:56:20.216Z,102136.72
2022-09-22T14:58:54.333Z,102129.63
2022-09-22T15:01:42.724Z,102125.16
2022-09-22T15:04:16.017Z,102133.16
2022-09-22T15:06:51.961Z,102125.19
2022-09-22T15:09:34.126Z,102120.72
2022-09-22T15:12:03.861Z,102117.19
2022-09-22T15:14:42.266Z,102123.41
2022-09-22T15:17:57.248Z,102118.06
2022-09-22T15:20:48.663Z,102116.28
2022-09-22T15:23:42.131Z,102111.84
2022-09-22T15:26:25.253Z,102110.97
2022-09-22T15:28:56.090Z,102115.41
2022-09-22T15:31:28.371Z,102113.63
2022-09-22T15:34:01.552Z,102109.22
2022-09-22T15:36:32.898Z,102101.22
2022-09-22T15:39:20.764Z,102104.81
2022-09-22T15:41:53.561Z,102105.69
2022-09-22T15:44:22.080Z,102092.38
2022-09-22T15:46:54.372Z,102104.81
2022-09-22T15:49:26.561Z,102094.16
2022-09-22T15:51:58.318Z,102096.81
2022-09-22T15:54:26.982Z,102100.38
2022-09-22T15:56:56.598Z,102096.84
2022-09-22T15:59:32.298Z,102097.72
2022-09-22T16:02:01.300Z,102092.41
2022-09-22T16:04:31.626Z,102090.63
2022-09-22T16:07:04.460Z,102085.31
2022-09-22T16:09:32.805Z,102089.75
2022-09-22T16:12:01.644Z,102077.34
2022-09-22T16:14:31.477Z,102081.78
2022-09-22T16:16:59.875Z,102082.69
2022-09-22T16:19:30.360Z,102076.47
2022-09-22T16:21:58.602Z,102081.78
2022-09-22T16:24:29.074Z,102085.34
2022-09-22T16:26:58.002Z,102084.44
2022-09-22T16:29:26.462Z,102087.97
2022-09-22T16:31:55.065Z,102077.34
2022-09-22T16:34:23.777Z,102078.22
2022-09-22T16:36:52.556Z,102071.09
2022-09-22T16:39:25.545Z,102071.97
2022-09-22T16:41:54.483Z,102070.19
2022-09-22T16:44:22.857Z,102072.81
2022-09-22T16:46:51.166Z,102073.66
2022-09-22T16:49:21.167Z,102071.00
2022-09-22T16:51:50.852Z,102075.41
2022-09-22T16:54:19.577Z,102067.41
2022-09-22T16:56:49.728Z,102071.78
2022-09-22T16:59:20.307Z,102080.59
2022-09-22T17:01:49.629Z,102069.03
2022-09-22T17:04:21.250Z,102076.94
2022-09-22T17:06:49.652Z,102072.50
2022-09-22T17:09:20.262Z,102069.75
2022-09-22T17:11:49.204Z,102069.66
2022-09-22T17:14:23.264Z,102070.47
2022-09-22T17:16:54.011Z,102065.97
2022-09-22T17:19:27.680Z,102064.13
2022-09-22T17:21:56.943Z,102053.44
2022-09-22T17:24:29.137Z,102052.50
2022-09-22T17:26:59.218Z,102056.81
2022-09-22T17:29:32.836Z,102057.63
2022-09-22T17:32:04.319Z,102063.69
2022-09-22T17:34:34.001Z,102049.50
2022-09-22T17:37:03.178Z,102060.91
2022-09-22T17:39:32.126Z,102065.22
2022-09-22T17:42:00.467Z,102058.97
2022-09-22T17:44:31.033Z,102059.75
2022-09-22T17:47:18.044Z,102057.91
2022-09-22T17:50:04.870Z,102060.50
2022-09-22T17:52:33.524Z,102052.44
2022-09-22T17:55:08.809Z,102048.88
2022-09-22T17:57:42.689Z,102056.69
2022-09-22T18:00:14.000Z,102046.03
2022-09-22T18:02:44.900Z,102052.16
2022-09-22T18:05:16.219Z,102045.00
2022-09-22T18:07:45.165Z,102052.94
2022-09-22T18:10:16.680Z,102050.19
2022-09-22T18:12:45.619Z,102043.06
2022-09-22T18:15:15.094Z,102050.97
2022-09-22T18:17:48.774Z,102044.75
2022-09-22T18:20:21.930Z,102047.28
2022-09-22T18:22:50.599Z,102055.22
2022-09-22T18:25:21.839Z,102044.56
2022-09-22T18:27:50.549Z,102050.72
2022-09-22T18:30:22.703Z,102044.53
2022-09-22T18:32:54.829Z,102049.72
2022-09-22T18:35:24.859Z,102047.94
2022-09-22T18:37:53.399Z,102045.19
2022-09-22T18:40:24.837Z,102049.59
2022-09-22T18:42:55.854Z,102048.63
2022-09-22T18:45:25.292Z,102039.81
2022-09-22T18:48:02.887Z,102045.91
2022-09-22T18:50:34.769Z,102045.88
2022-09-22T18:53:03.428Z,102051.13
2022-09-22T18:55:32.524Z,102046.66
2022-09-22T18:58:01.186Z,102045.75
2022-09-22T19:00:29.729Z,102043.94
2022-09-22T19:03:03.569Z,102049.16
2022-09-22T19:05:32.273Z,102048.22
2022-09-22T19:08:01.865Z,102048.16
2022-09-22T19:10:30.393Z,102049.03
2022-09-22T19:12:59.775Z,102053.41
2022-09-22T19:15:30.981Z,102047.16
2022-09-22T19:17:59.404Z,102052.41
2022-09-22T19:20:29.109Z,102044.50
2022-09-22T19:23:00.651Z,102040.94
2022-09-22T19:25:29.882Z,102040.94
2022-09-22T19:28:01.832Z,102043.59
2022-09-22T19:30:31.610Z,102041.81
2022-09-22T19:33:00.535Z,102039.13
2022-09-22T19:35:29.220Z,102039.97
2022-09-22T19:37:58.280Z,102042.56
2022-09-22T19:40:26.856Z,102039.03
2022-09-22T19:42:56.907Z,102031.06
2022-09-22T19:45:26.263Z,102032.81
2022-09-22T19:47:58.453Z,102024.91
2022-09-22T19:50:27.003Z,102029.31
2022-09-22T19:52:59.150Z,102030.13
2022-09-22T19:55:27.937Z,102024.81
2022-09-22T19:57:59.507Z,102024.75
2022-09-22T20:00:28.131Z,102031.75
2022-09-22T20:03:00.799Z,102020.28
2022-09-22T20:05:36.736Z,102019.41
2022-09-22T20:08:17.469Z,102023.75
2022-09-22T20:10:49.007Z,102016.69
2022-09-22T20:13:38.079Z,102014.91
2022-09-22T20:16:06.750Z,102013.09
2022-09-22T20:18:41.214Z,102016.59
2022-09-22T20:21:16.655Z,102005.09
2022-09-22T20:23:45.404Z,102009.44
2022-09-22T20:26:15.283Z,102007.63
2022-09-22T20:28:45.408Z,102011.94
2022-09-22T20:31:13.887Z,102010.13
2022-09-22T20:33:43.197Z,102009.19
2022-09-22T20:36:14.069Z,102003.00
2022-09-22T20:38:43.015Z,102011.78
2022-09-22T20:41:18.960Z,101999.44
2022-09-22T20:43:50.621Z,102005.53
2022-09-22T20:46:19.698Z,102001.06
2022-09-22T20:48:48.824Z,101999.28
2022-09-22T20:51:23.764Z,101993.06
2022-09-22T20:53:52.295Z,101995.63
2022-09-22T20:56:20.723Z,102000.81
2022-09-22T20:58:49.113Z,101993.75
2022-09-22T21:01:18.711Z,101992.78
2022-09-22T21:03:47.847Z,101990.09
2022-09-22T21:06:18.205Z,101988.28
2022-09-22T21:09:06.411Z,101997.00
2022-09-22T21:11:36.195Z,101989.91
2022-09-22T21:14:05.992Z,101985.50
2022-09-22T21:16:36.812Z,101986.31
2022-09-22T21:19:05.979Z,101990.69
2022-09-22T21:21:38.906Z,101988.03
2022-09-22T21:24:08.211Z,101993.25
2022-09-22T21:26:37.026Z,101992.31
2022-09-22T21:29:05.511Z,101994.91
2022-09-22T21:31:34.841Z,101992.19
2022-09-22T21:34:04.708Z,101985.09
2022-09-22T21:36:34.103Z,101985.03
2022-09-22T21:39:05.580Z,101985.91
2022-09-22T21:41:37.017Z,101986.72
2022-09-22T21:44:06.171Z,101982.38
2022-09-22T21:46:37.301Z,101977.94
2022-09-22T21:49:06.578Z,101982.31
2022-09-22T21:51:42.302Z,101974.38
2022-09-22T21:54:15.059Z,101977.88
2022-09-22T21:56:47.229Z,101962.91
2022-09-22T21:59:16.127Z,101972.63
2022-09-22T22:01:45.429Z,101962.97
2022-09-22T22:04:15.217Z,101963.84
2022-09-22T22:06:47.333Z,101965.63
2022-09-22T22:09:21.048Z,101955.09
2022-09-22T22:11:57.524Z,101957.72
2022-09-22T22:14:32.623Z,101958.63
2022-09-22T22:17:03.801Z,101947.22
2022-09-22T22:19:32.443Z,101946.38
2022-09-22T22:22:01.679Z,101950.78
2022-09-22T22:24:42.227Z,101942.03
2022-09-22T22:27:11.114Z,101933.22
2022-09-22T22:29:39.504Z,101933.22
2022-09-22T22:32:10.230Z,101931.50
2022-09-22T22:34:38.750Z,101925.31
2022-09-22T22:37:09.556Z,101937.66
2022-09-22T22:39:38.062Z,101917.50
2022-09-22T22:42:09.262Z,101921.00
2022-09-22T22:44:37.924Z,101921.00
2022-09-22T22:47:08.544Z,101913.06
2022-09-22T22:49:36.954Z,101919.22
2022-09-22T22:52:05.258Z,101917.50
2022-09-22T22:54:33.965Z,101916.63
2022-09-22T22:57:02.360Z,101912.19
2022-09-22T22:59:30.875Z,101900.75
2022-09-22T23:01:59.522Z,101909.50
2022-09-22T23:04:27.843Z,101905.13
2022-09-22T23:06:57.410Z,101895.41
2022-09-22T23:09:25.873Z,101898.88
2022-09-22T23:11:54.754Z,101891.88
2022-09-22T23:14:23.140Z,101886.56
2022-09-22T23:16:51.494Z,101893.53
2022-09-22T23:19:19.890Z,101882.97
2022-09-22T23:21:48.866Z,101894.31
2022-09-22T23:24:19.370Z,101886.41
2022-09-22T23:26:48.106Z,101881.09
2022-09-22T23:29:16.390Z,101888.13
2022-09-22T23:31:46.052Z,101887.16
2022-09-22T23:34:14.500Z,101880.97
2022-09-22T23:36:43.221Z,101883.56
2022-09-22T23:39:12.286Z,101882.66
2022-09-22T23:41:41.611Z,101876.47
2022-09-22T23:44:12.379Z,101877.28
2022-09-22T23:46:43.022Z,101876.38
2022-09-22T23:49:11.244Z,101864.06
2022-09-22T23:51:39.573Z,101873.66
2022-09-22T23:54:08.928Z,101864.88
2022-09-22T23:56:37.865Z,101865.75
2022-09-22T23:59:06.510Z,101861.22
